sensor_id;sensor_type;location;lat;lon;timestamp;pressure;altitude;pressure_sealevel;temperature;humidity
60897;BME280;46749;32.932;-117.130;2023-04-01T00:01:07;102077.56;;;15.97;53.34
60897;BME280;46749;32.932;-117.130;2023-04-01T00:03:34;102074.94;;;15.97;53.34
60897;BME280;46749;32.932;-117.130;2023-04-01T00:06:01;102077.56;;;15.97;53.53
60897;BME280;46749;32.932;-117.130;2023-04-01T00:08:28;102077.56;;;15.97;53.58
60897;BME280;46749;32.932;-117.130;2023-04-01T00:10:55;102071.41;;;15.96;53.53
60897;BME280;46749;32.932;-117.130;2023-04-01T00:13:23;102077.56;;;15.97;53.41
60897;BME280;46749;32.932;-117.130;2023-04-01T00:15:51;102070.50;;;15.96;53.42
60897;BME280;46749;32.932;-117.130;2023-04-01T00:18:18;102071.34;;;15.95;53.35
60897;BME280;46749;32.932;-117.130;2023-04-01T00:20:50;102073.97;;;15.95;53.42
60897;BME280;46749;32.932;-117.130;2023-04-01T00:23:18;102074.88;;;15.95;53.43
60897;BME280;46749;32.932;-117.130;2023-04-01T00:25:45;102076.53;;;15.93;53.29
60897;BME280;46749;32.932;-117.130;2023-04-01T00:28:18;102072.19;;;15.94;53.46
60897;BME280;46749;32.932;-117.130;2023-04-01T00:30:44;102079.22;;;15.95;53.43
60897;BME280;46749;32.932;-117.130;2023-04-01T00:33:10;102073.97;;;15.95;53.57
60897;BME280;46749;32.932;-117.130;2023-04-01T00:35:37;102065.22;;;15.94;53.51
60897;BME280;46749;32.932;-117.130;2023-04-01T00:38:05;102068.72;;;15.95;53.59
60897;BME280;46749;32.932;-117.130;2023-04-01T00:40:35;102066.13;;;15.95;53.38
60897;BME280;46749;32.932;-117.130;2023-04-01T00:43:03;102065.22;;;15.94;53.46
60897;BME280;46749;32.932;-117.130;2023-04-01T00:45:41;102072.19;;;15.94;53.36
60897;BME280;46749;32.932;-117.130;2023-04-01T00:48:11;102056.47;;;15.94;53.41
60897;BME280;46749;32.932;-117.130;2023-04-01T00:50:42;102065.22;;;15.94;53.17
60897;BME280;46749;32.932;-117.130;2023-04-01T00:53:11;102049.50;;;15.94;53.54
60897;BME280;46749;32.932;-117.130;2023-04-01T00:55:42;102051.22;;;15.94;53.52
60897;BME280;46749;32.932;-117.130;2023-04-01T00:58:14;102055.59;;;15.93;53.42
60897;BME280;46749;32.932;-117.130;2023-04-01T01:00:43;102057.31;;;15.93;53.42
60897;BME280;46749;32.932;-117.130;2023-04-01T01:03:11;102052.91;;;15.91;53.43
60897;BME280;46749;32.932;-117.130;2023-04-01T01:11:14;102063.41;;;15.91;53.49
60897;BME280;46749;32.932;-117.130;2023-04-01T01:14:00;102052.91;;;15.91;53.40
60897;BME280;46749;32.932;-117.130;2023-04-01T01:16:36;102058.16;;;15.91;53.26
60897;BME280;46749;32.932;-117.130;2023-04-01T01:22:03;102051.13;;;15.90;53.25
60897;BME280;46749;32.932;-117.130;2023-04-01T01:27:27;102056.38;;;15.90;53.49
60897;BME280;46749;32.932;-117.130;2023-04-01T01:32:59;102052.78;;;15.88;53.38
60897;BME280;46749;32.932;-117.130;2023-04-01T01:35:38;102054.56;;;15.89;53.48
60897;BME280;46749;32.932;-117.130;2023-04-01T01:38:16;102054.56;;;15.89;53.23
60897;BME280;46749;32.932;-117.130;2023-04-01T01:40:47;102061.53;;;15.89;53.37
60897;BME280;46749;32.932;-117.130;2023-04-01T01:43:18;102067.66;;;15.89;53.05
60897;BME280;46749;32.932;-117.130;2023-04-01T01:45:51;102059.81;;;15.89;53.29
60897;BME280;46749;32.932;-117.130;2023-04-01T01:48:20;102062.44;;;15.89;53.33
60897;BME280;46749;32.932;-117.130;2023-04-01T01:50:47;102068.50;;;15.88;53.32
60897;BME280;46749;32.932;-117.130;2023-04-01T01:53:14;102063.28;;;15.88;53.32
60897;BME280;46749;32.932;-117.130;2023-04-01T01:55:44;102072.88;;;15.88;53.24
60897;BME280;46749;32.932;-117.130;2023-04-01T01:58:39;102058.03;;;15.88;53.01
60897;BME280;46749;32.932;-117.130;2023-04-01T02:01:08;102061.50;;;15.87;53.13
60897;BME280;46749;32.932;-117.130;2023-04-01T02:03:37;102053.63;;;15.87;53.31
60897;BME280;46749;32.932;-117.130;2023-04-01T02:06:08;102057.16;;;15.88;53.30
60897;BME280;46749;32.932;-117.130;2023-04-01T02:08:42;102054.47;;;15.86;53.21
60897;BME280;46749;32.932;-117.130;2023-04-01T02:11:12;102049.25;;;15.86;53.26
60897;BME280;46749;32.932;-117.130;2023-04-01T02:13:45;102048.34;;;15.86;53.12
60897;BME280;46749;32.932;-117.130;2023-04-01T02:16:35;102044.00;;;15.86;53.12
60897;BME280;46749;32.932;-117.130;2023-04-01T02:19:03;102042.22;;;15.85;53.31
60897;BME280;46749;32.932;-117.130;2023-04-01T02:21:33;102042.22;;;15.85;53.22
60897;BME280;46749;32.932;-117.130;2023-04-01T02:24:04;102044.00;;;15.86;53.38
60897;BME280;46749;32.932;-117.130;2023-04-01T02:26:31;102042.25;;;15.87;53.39
60897;BME280;46749;32.932;-117.130;2023-04-01T02:28:59;102042.22;;;15.85;53.14
60897;BME280;46749;32.932;-117.130;2023-04-01T02:31:27;102035.19;;;15.84;53.42
60897;BME280;46749;32.932;-117.130;2023-04-01T02:33:54;102038.63;;;15.83;53.26
60897;BME280;46749;32.932;-117.130;2023-04-01T02:36:21;102036.97;;;15.85;53.22
60897;BME280;46749;32.932;-117.130;2023-04-01T02:38:48;102039.50;;;15.84;53.28
60897;BME280;46749;32.932;-117.130;2023-04-01T02:41:15;102035.19;;;15.84;53.15
60897;BME280;46749;32.932;-117.130;2023-04-01T02:43:41;102036.84;;;15.82;53.36
60897;BME280;46749;32.932;-117.130;2023-04-01T02:46:08;102039.47;;;15.82;53.40
60897;BME280;46749;32.932;-117.130;2023-04-01T02:48:34;102036.84;;;15.82;53.46
60897;BME280;46749;32.932;-117.130;2023-04-01T02:51:00;102038.63;;;15.83;53.34
60897;BME280;46749;32.932;-117.130;2023-04-01T02:53:27;102036.84;;;15.82;53.14
60897;BME280;46749;32.932;-117.130;2023-04-01T02:55:53;102041.19;;;15.82;53.26
60897;BME280;46749;32.932;-117.130;2023-04-01T02:58:19;102040.31;;;15.81;53.16
60897;BME280;46749;32.932;-117.130;2023-04-01T03:00:45;102041.16;;;15.80;53.31
60897;BME280;46749;32.932;-117.130;2023-04-01T03:03:12;102037.69;;;15.81;53.19
60897;BME280;46749;32.932;-117.130;2023-04-01T03:05:39;102046.41;;;15.80;53.15
60897;BME280;46749;32.932;-117.130;2023-04-01T03:08:05;102049.00;;;15.80;53.12
60897;BME280;46749;32.932;-117.130;2023-04-01T03:10:32;102053.38;;;15.80;53.36
60897;BME280;46749;32.932;-117.130;2023-04-01T03:12:59;102051.63;;;15.80;53.21
60897;BME280;46749;32.932;-117.130;2023-04-01T03:15:25;102051.59;;;15.79;53.23
60897;BME280;46749;32.932;-117.130;2023-04-01T03:17:51;102055.09;;;15.79;53.32
60897;BME280;46749;32.932;-117.130;2023-04-01T03:20:17;102061.19;;;15.78;53.22
60897;BME280;46749;32.932;-117.130;2023-04-01T03:22:44;102063.78;;;15.78;53.24
60897;BME280;46749;32.932;-117.130;2023-04-01T03:25:11;102063.78;;;15.78;53.13
60897;BME280;46749;32.932;-117.130;2023-04-01T03:27:38;102076.00;;;15.78;53.27
60897;BME280;46749;32.932;-117.130;2023-04-01T03:30:05;102076.91;;;15.78;53.25
60897;BME280;46749;32.932;-117.130;2023-04-01T03:32:33;102074.19;;;15.77;53.17
60897;BME280;46749;32.932;-117.130;2023-04-01T03:35:00;102073.31;;;15.76;53.22
60897;BME280;46749;32.932;-117.130;2023-04-01T03:37:26;102081.16;;;15.76;53.35
60897;BME280;46749;32.932;-117.130;2023-04-01T03:39:52;102082.88;;;15.76;53.32
60897;BME280;46749;32.932;-117.130;2023-04-01T03:42:18;102080.28;;;15.76;53.24
60897;BME280;46749;32.932;-117.130;2023-04-01T03:44:44;102081.13;;;15.75;53.21
60897;BME280;46749;32.932;-117.130;2023-04-01T03:47:11;102088.09;;;15.74;53.38
60897;BME280;46749;32.932;-117.130;2023-04-01T03:49:37;102078.50;;;15.75;53.33
60897;BME280;46749;32.932;-117.130;2023-04-01T03:52:03;102085.41;;;15.73;53.40
60897;BME280;46749;32.932;-117.130;2023-04-01T03:54:29;102081.06;;;15.73;53.39
60897;BME280;46749;32.932;-117.130;2023-04-01T03:56:56;102081.91;;;15.72;53.48
60897;BME280;46749;32.932;-117.130;2023-04-01T03:59:23;102073.16;;;15.72;53.03
60897;BME280;46749;32.932;-117.130;2023-04-01T04:01:49;102074.84;;;15.71;53.55
60897;BME280;46749;32.932;-117.130;2023-04-01T04:04:16;102072.25;;;15.71;53.36
60897;BME280;46749;32.932;-117.130;2023-04-01T04:06:43;102073.97;;;15.71;53.23
60897;BME280;46749;32.932;-117.130;2023-04-01T04:09:09;102075.69;;;15.70;53.19
60897;BME280;46749;32.932;-117.130;2023-04-01T04:11:35;102080.03;;;15.70;53.48
60897;BME280;46749;32.932;-117.130;2023-04-01T04:14:02;102085.22;;;15.68;53.21
60897;BME280;46749;32.932;-117.130;2023-04-01T04:16:28;102085.22;;;15.68;53.39
60897;BME280;46749;32.932;-117.130;2023-04-01T04:18:54;102084.34;;;15.68;53.17
60897;BME280;46749;32.932;-117.130;2023-04-01T04:21:20;102084.34;;;15.68;53.21
60897;BME280;46749;32.932;-117.130;2023-04-01T04:23:46;102086.06;;;15.67;53.23
60897;BME280;46749;32.932;-117.130;2023-04-01T04:26:14;102091.25;;;15.66;53.35
60897;BME280;46749;32.932;-117.130;2023-04-01T04:28:41;102086.91;;;15.66;53.40
60897;BME280;46749;32.932;-117.130;2023-04-01T04:31:07;102086.91;;;15.66;53.50
60897;BME280;46749;32.932;-117.130;2023-04-01T04:33:34;102089.53;;;15.66;53.25
60897;BME280;46749;32.932;-117.130;2023-04-01T04:36:01;102090.38;;;15.65;53.39
60897;BME280;46749;32.932;-117.130;2023-04-01T04:38:28;102096.41;;;15.64;53.39
60897;BME280;46749;32.932;-117.130;2023-04-01T04:40:54;102101.66;;;15.64;53.24
60897;BME280;46749;32.932;-117.130;2023-04-01T04:43:21;102100.72;;;15.62;53.14
60897;BME280;46749;32.932;-117.130;2023-04-01T04:45:47;102100.63;;;15.60;53.36
60897;BME280;46749;32.932;-117.130;2023-04-01T04:48:15;102108.56;;;15.62;53.17
60897;BME280;46749;32.932;-117.130;2023-04-01T04:50:49;102103.25;;;15.60;53.12
60897;BME280;46749;32.932;-117.130;2023-04-01T04:53:17;102104.13;;;15.61;53.24
60897;BME280;46749;32.932;-117.130;2023-04-01T04:55:45;102111.06;;;15.59;53.13
60897;BME280;46749;32.932;-117.130;2023-04-01T04:58:11;102113.69;;;15.59;53.16
60897;BME280;46749;32.932;-117.130;2023-04-01T05:00:38;102108.34;;;15.57;53.35
60897;BME280;46749;32.932;-117.130;2023-04-01T05:03:04;102115.31;;;15.57;53.14
60897;BME280;46749;32.932;-117.130;2023-04-01T05:05:30;102126.63;;;15.56;53.23
60897;BME280;46749;32.932;-117.130;2023-04-01T05:07:57;102131.00;;;15.55;53.09
60897;BME280;46749;32.932;-117.130;2023-04-01T05:10:23;102130.09;;;15.55;53.37
60897;BME280;46749;32.932;-117.130;2023-04-01T05:12:49;102123.97;;;15.54;53.13
60897;BME280;46749;32.932;-117.130;2023-04-01T05:15:15;102130.09;;;15.55;53.22
60897;BME280;46749;32.932;-117.130;2023-04-01T05:17:41;102124.72;;;15.52;53.19
60897;BME280;46749;32.932;-117.130;2023-04-01T05:20:08;102127.34;;;15.52;53.21
60897;BME280;46749;32.932;-117.130;2023-04-01T05:22:34;102129.06;;;15.51;53.25
60897;BME280;46749;32.932;-117.130;2023-04-01T05:25:00;102137.81;;;15.52;53.27
60897;BME280;46749;32.932;-117.130;2023-04-01T05:27:27;102138.66;;;15.51;53.28
60897;BME280;46749;32.932;-117.130;2023-04-01T05:29:53;102140.38;;;15.50;53.20
60897;BME280;46749;32.932;-117.130;2023-04-01T05:32:19;102131.63;;;15.50;53.16
60897;BME280;46749;32.932;-117.130;2023-04-01T05:34:45;102135.09;;;15.49;53.19
60897;BME280;46749;32.932;-117.130;2023-04-01T05:37:11;102128.97;;;15.48;53.24
60897;BME280;46749;32.932;-117.130;2023-04-01T05:39:39;102128.09;;;15.48;53.24
60897;BME280;46749;32.932;-117.130;2023-04-01T05:42:08;102122.72;;;15.45;53.05
60897;BME280;46749;32.932;-117.130;2023-04-01T05:44:34;102130.66;;;15.46;53.13
60897;BME280;46749;32.932;-117.130;2023-04-01T05:47:02;102129.72;;;15.46;53.12
60897;BME280;46749;32.932;-117.130;2023-04-01T05:49:28;102120.94;;;15.44;53.22
60897;BME280;46749;32.932;-117.130;2023-04-01T05:51:55;102120.94;;;15.44;53.21
60897;BME280;46749;32.932;-117.130;2023-04-01T05:54:21;102123.53;;;15.44;53.26
60897;BME280;46749;32.932;-117.130;2023-04-01T05:56:47;102124.38;;;15.43;53.22
60897;BME280;46749;32.932;-117.130;2023-04-01T05:59:14;102116.47;;;15.41;53.24
60897;BME280;46749;32.932;-117.130;2023-04-01T06:01:40;102118.22;;;15.41;53.42
60897;BME280;46749;32.932;-117.130;2023-04-01T06:04:09;102118.22;;;15.41;53.14
60897;BME280;46749;32.932;-117.130;2023-04-01T06:06:36;102122.47;;;15.38;53.11
60897;BME280;46749;32.932;-117.130;2023-04-01T06:09:29;102118.06;;;15.37;53.19
60897;BME280;46749;32.932;-117.130;2023-04-01T06:12:06;102116.34;;;15.38;53.08
60897;BME280;46749;32.932;-117.130;2023-04-01T06:26:14;102111.75;;;15.32;52.84
60897;BME280;46749;32.932;-117.130;2023-04-01T06:48:46;102121.09;;;15.26;53.21
60897;BME280;46749;32.932;-117.130;2023-04-01T06:54:03;102124.56;;;15.25;53.31
60897;BME280;46749;32.932;-117.130;2023-04-01T06:56:32;102116.66;;;15.23;52.92
60897;BME280;46749;32.932;-117.130;2023-04-01T06:59:25;102121.81;;;15.22;53.12
60897;BME280;46749;32.932;-117.130;2023-04-01T07:04:40;102118.31;;;15.21;53.05
60897;BME280;46749;32.932;-117.130;2023-04-01T07:07:17;102121.75;;;15.20;53.19
60897;BME280;46749;32.932;-117.130;2023-04-01T07:09:52;102138.28;;;15.19;53.10
60897;BME280;46749;32.932;-117.130;2023-04-01T07:14:48;102135.63;;;15.18;52.90
60897;BME280;46749;32.932;-117.130;2023-04-01T07:17:19;102140.78;;;15.16;53.24
60897;BME280;46749;32.932;-117.130;2023-04-01T07:19:54;102131.28;;;15.18;52.96
60897;BME280;46749;32.932;-117.130;2023-04-01T07:22:32;102140.91;;;15.19;53.09
60897;BME280;46749;32.932;-117.130;2023-04-01T07:25:11;102140.00;;;15.19;53.06
60897;BME280;46749;32.932;-117.130;2023-04-01T07:27:37;102140.00;;;15.19;52.93
60897;BME280;46749;32.932;-117.130;2023-04-01T07:30:07;102135.56;;;15.16;52.92
60897;BME280;46749;32.932;-117.130;2023-04-01T07:35:13;102135.56;;;15.16;53.03
60897;BME280;46749;32.932;-117.130;2023-04-01T07:49:10;102139.72;;;15.11;53.01
60897;BME280;46749;32.932;-117.130;2023-04-01T07:54:47;102137.03;;;15.09;53.14
60897;BME280;46749;32.932;-117.130;2023-04-01T07:57:30;102133.59;;;15.10;53.10
60897;BME280;46749;32.932;-117.130;2023-04-01T08:00:19;102127.47;;;15.10;53.15
60897;BME280;46749;32.932;-117.130;2023-04-01T08:05:26;102137.88;;;15.08;53.12
60897;BME280;46749;32.932;-117.130;2023-04-01T08:08:07;102131.72;;;15.08;53.27
60897;BME280;46749;32.932;-117.130;2023-04-01T08:10:48;102133.44;;;15.07;53.00
60897;BME280;46749;32.932;-117.130;2023-04-01T08:13:33;102134.28;;;15.06;53.07
60897;BME280;46749;32.932;-117.130;2023-04-01T08:16:20;102134.22;;;15.05;53.05
60897;BME280;46749;32.932;-117.130;2023-04-01T08:21:51;102126.38;;;15.05;53.05
60897;BME280;46749;32.932;-117.130;2023-04-01T08:24:43;102125.53;;;15.06;53.11
60897;BME280;46749;32.932;-117.130;2023-04-01T08:33:12;102118.47;;;15.03;52.96
60897;BME280;46749;32.932;-117.130;2023-04-01T08:35:59;102115.78;;;15.02;53.01
60897;BME280;46749;32.932;-117.130;2023-04-01T08:39:11;102111.38;;;15.01;53.13
60897;BME280;46749;32.932;-117.130;2023-04-01T08:47:24;102106.97;;;15.00;53.07
60897;BME280;46749;32.932;-117.130;2023-04-01T09:01:25;102087.72;;;14.98;53.09
60897;BME280;46749;32.932;-117.130;2023-04-01T09:07:04;102082.44;;;14.96;53.15
60897;BME280;46749;32.932;-117.130;2023-04-01T09:28:44;102079.69;;;14.93;52.90
60897;BME280;46749;32.932;-117.130;2023-04-01T09:34:51;102092.72;;;14.92;53.25
60897;BME280;46749;32.932;-117.130;2023-04-01T09:43:13;102086.63;;;14.93;52.98
60897;BME280;46749;32.932;-117.130;2023-04-01T09:45:52;102091.03;;;14.94;53.13
60897;BME280;46749;32.932;-117.130;2023-04-01T09:48:35;102081.34;;;14.91;53.25
60897;BME280;46749;32.932;-117.130;2023-04-01T10:00:13;102088.06;;;14.84;52.98
60897;BME280;46749;32.932;-117.130;2023-04-01T10:09:02;102089.00;;;14.87;53.19
60897;BME280;46749;32.932;-117.130;2023-04-01T10:19:55;102087.09;;;14.82;53.09
60897;BME280;46749;32.932;-117.130;2023-04-01T10:22:58;102090.59;;;14.83;53.04
60897;BME280;46749;32.932;-117.130;2023-04-01T10:29:00;102076.63;;;14.82;52.93
60897;BME280;46749;32.932;-117.130;2023-04-01T10:32:23;102071.38;;;14.82;53.14
60897;BME280;46749;32.932;-117.130;2023-04-01T10:44:03;102059.03;;;14.78;53.10
60897;BME280;46749;32.932;-117.130;2023-04-01T11:01:15;102031.91;;;14.76;53.37
60897;BME280;46749;32.932;-117.130;2023-04-01T11:20:13;102021.41;;;14.75;53.03
60897;BME280;46749;32.932;-117.130;2023-04-01T11:23:08;102012.63;;;14.73;53.08
60897;BME280;46749;32.932;-117.130;2023-04-01T11:26:13;102022.19;;;14.72;53.16
60897;BME280;46749;32.932;-117.130;2023-04-01T11:34:38;102021.34;;;14.73;53.21
60897;BME280;46749;32.932;-117.130;2023-04-01T11:37:22;102030.03;;;14.72;53.27
60897;BME280;46749;32.932;-117.130;2023-04-01T11:45:44;102014.19;;;14.69;53.17
60897;BME280;46749;32.932;-117.130;2023-04-01T11:51:26;102015.19;;;14.71;53.35
60897;BME280;46749;32.932;-117.130;2023-04-01T11:57:09;102014.19;;;14.69;53.26
60897;BME280;46749;32.932;-117.130;2023-04-01T12:05:43;102013.25;;;14.67;53.10
60897;BME280;46749;32.932;-117.130;2023-04-01T12:08:25;102015.88;;;14.67;53.16
60897;BME280;46749;32.932;-117.130;2023-04-01T12:19:24;102001.00;;;14.66;53.23
60897;BME280;46749;32.932;-117.130;2023-04-01T12:25:02;102009.69;;;14.65;53.36
60897;BME280;46749;32.932;-117.130;2023-04-01T12:30:14;102003.59;;;14.65;53.32
60897;BME280;46749;32.932;-117.130;2023-04-01T12:36:00;101999.25;;;14.65;53.27
60897;BME280;46749;32.932;-117.130;2023-04-01T12:46:41;102014.78;;;14.62;53.20
60897;BME280;46749;32.932;-117.130;2023-04-01T12:52:40;102021.78;;;14.63;53.27
60897;BME280;46749;32.932;-117.130;2023-04-01T13:00:57;102033.94;;;14.61;53.35
60897;BME280;46749;32.932;-117.130;2023-04-01T13:12:40;102050.44;;;14.60;53.14
60897;BME280;46749;32.932;-117.130;2023-04-01T13:15:28;102046.94;;;14.60;53.18
60897;BME280;46749;32.932;-117.130;2023-04-01T13:18:05;102046.94;;;14.60;53.32
60897;BME280;46749;32.932;-117.130;2023-04-01T13:20:54;102040.81;;;14.59;53.23
60897;BME280;46749;32.932;-117.130;2023-04-01T13:37:13;102063.38;;;14.57;53.41
60897;BME280;46749;32.932;-117.130;2023-04-01T13:48:32;102073.72;;;14.54;53.25
60897;BME280;46749;32.932;-117.130;2023-04-01T13:56:37;102067.72;;;14.56;53.32
60897;BME280;46749;32.932;-117.130;2023-04-01T14:00:06;102065.94;;;14.55;53.33
60897;BME280;46749;32.932;-117.130;2023-04-01T14:02:24;102058.03;;;14.54;53.08
60897;BME280;46749;32.932;-117.130;2023-04-01T14:10:48;102058.78;;;14.51;53.20
60897;BME280;46749;32.932;-117.130;2023-04-01T14:13:37;102060.59;;;14.52;53.49
60897;BME280;46749;32.932;-117.130;2023-04-01T14:16:28;102067.53;;;14.52;53.31
60897;BME280;46749;32.932;-117.130;2023-04-01T14:19:22;102070.16;;;14.52;53.21
60897;BME280;46749;32.932;-117.130;2023-04-01T14:22:23;102053.50;;;14.50;53.23
60897;BME280;46749;32.932;-117.130;2023-04-01T14:31:15;102056.00;;;14.47;53.21
60897;BME280;46749;32.932;-117.130;2023-04-01T14:50:56;102091.72;;;14.46;53.18
60897;BME280;46749;32.932;-117.130;2023-04-01T14:58:46;102077.63;;;14.44;53.43
60897;BME280;46749;32.932;-117.130;2023-04-01T15:01:46;102074.19;;;14.45;53.38
60897;BME280;46749;32.932;-117.130;2023-04-01T15:04:46;102078.63;;;14.46;53.49
60897;BME280;46749;32.932;-117.130;2023-04-01T15:10:18;102088.97;;;14.45;53.19
60897;BME280;46749;32.932;-117.130;2023-04-01T15:12:59;102088.09;;;14.44;53.38
60897;BME280;46749;32.932;-117.130;2023-04-01T15:16:11;102088.09;;;14.44;53.48
60897;BME280;46749;32.932;-117.130;2023-04-01T15:19:05;102093.31;;;14.44;53.54
60897;BME280;46749;32.932;-117.130;2023-04-01T15:29:53;102084.56;;;14.44;53.50
60897;BME280;46749;32.932;-117.130;2023-04-01T15:32:50;102088.84;;;14.42;53.36
60897;BME280;46749;32.932;-117.130;2023-04-01T15:41:15;102090.63;;;14.43;53.60
60897;BME280;46749;32.932;-117.130;2023-04-01T15:43:47;102099.31;;;14.42;53.58
60897;BME280;46749;32.932;-117.130;2023-04-01T15:46:39;102089.69;;;14.41;53.50
60897;BME280;46749;32.932;-117.130;2023-04-01T15:52:37;102102.75;;;14.41;53.69
60897;BME280;46749;32.932;-117.130;2023-04-01T15:55:19;102105.38;;;14.41;53.53
60897;BME280;46749;32.932;-117.130;2023-04-01T16:00:40;102100.16;;;14.41;53.67
60897;BME280;46749;32.932;-117.130;2023-04-01T16:08:50;102103.66;;;14.41;53.74
60897;BME280;46749;32.932;-117.130;2023-04-01T16:11:24;102092.31;;;14.41;53.75
60897;BME280;46749;32.932;-117.130;2023-04-01T16:16:31;102088.81;;;14.40;53.68
60897;BME280;46749;32.932;-117.130;2023-04-01T16:20:02;102097.53;;;14.41;53.71
60897;BME280;46749;32.932;-117.130;2023-04-01T16:22:35;102096.69;;;14.42;53.72
60897;BME280;46749;32.932;-117.130;2023-04-01T16:25:33;102099.31;;;14.42;53.58
60897;BME280;46749;32.932;-117.130;2023-04-01T16:31:07;102113.22;;;14.41;53.83
60897;BME280;46749;32.932;-117.130;2023-04-01T16:36:30;102131.50;;;14.41;54.14
60897;BME280;46749;32.932;-117.130;2023-04-01T16:39:26;102128.00;;;14.40;53.69
60897;BME280;46749;32.932;-117.130;2023-04-01T16:42:48;102128.91;;;14.41;53.91
60897;BME280;46749;32.932;-117.130;2023-04-01T16:47:56;102128.97;;;14.42;53.89
60897;BME280;46749;32.932;-117.130;2023-04-01T16:50:27;102126.34;;;14.42;53.80
60897;BME280;46749;32.932;-117.130;2023-04-01T17:01:28;102140.59;;;14.49;54.19
60897;BME280;46749;32.932;-117.130;2023-04-01T17:04:07;102132.91;;;14.52;54.15
60897;BME280;46749;32.932;-117.130;2023-04-01T17:07:03;102127.78;;;14.55;54.34
60897;BME280;46749;32.932;-117.130;2023-04-01T17:10:04;102131.34;;;14.57;54.31
60897;BME280;46749;32.932;-117.130;2023-04-01T17:16:10;102126.38;;;14.63;54.63
60897;BME280;46749;32.932;-117.130;2023-04-01T17:23:45;102126.72;;;14.71;54.53
60897;BME280;46749;32.932;-117.130;2023-04-01T17:31:55;102120.78;;;14.75;54.81
60897;BME280;46749;32.932;-117.130;2023-04-01T17:34:53;102126.06;;;14.76;55.12
60897;BME280;46749;32.932;-117.130;2023-04-01T17:40:34;102128.94;;;14.82;54.68
60897;BME280;46749;32.932;-117.130;2023-04-01T17:43:27;102139.41;;;14.82;54.54
60897;BME280;46749;32.932;-117.130;2023-04-01T17:54:32;102122.22;;;14.89;55.20
60897;BME280;46749;32.932;-117.130;2023-04-01T18:02:48;102128.28;;;14.88;54.90
60897;BME280;46749;32.932;-117.130;2023-04-01T18:05:30;102135.31;;;14.89;54.54
60897;BME280;46749;32.932;-117.130;2023-04-01T18:16:38;102125.78;;;14.90;54.66
60897;BME280;46749;32.932;-117.130;2023-04-01T18:19:44;102129.19;;;14.89;54.59
60897;BME280;46749;32.932;-117.130;2023-04-01T18:22:21;102135.31;;;14.89;54.89
60897;BME280;46749;32.932;-117.130;2023-04-01T18:25:18;102130.03;;;14.88;54.81
60897;BME280;46749;32.932;-117.130;2023-04-01T18:28:25;102116.09;;;14.89;54.60
60897;BME280;46749;32.932;-117.130;2023-04-01T18:31:04;102123.97;;;14.89;54.50
60897;BME280;46749;32.932;-117.130;2023-04-01T18:39:38;102116.06;;;14.87;54.71
60897;BME280;46749;32.932;-117.130;2023-04-01T18:52:44;102121.28;;;14.87;54.69
60897;BME280;46749;32.932;-117.130;2023-04-01T18:55:37;102119.50;;;14.86;54.67
60897;BME280;46749;32.932;-117.130;2023-04-01T19:01:23;102112.53;;;14.87;54.64
60897;BME280;46749;32.932;-117.130;2023-04-01T19:04:18;102113.44;;;14.87;54.60
60897;BME280;46749;32.932;-117.130;2023-04-01T19:06:55;102115.22;;;14.88;54.79
60897;BME280;46749;32.932;-117.130;2023-04-01T19:09:30;102116.06;;;14.87;54.84
60897;BME280;46749;32.932;-117.130;2023-04-01T19:14:51;102110.81;;;14.87;54.57
60897;BME280;46749;32.932;-117.130;2023-04-01T19:20:12;102122.19;;;14.88;54.26
60897;BME280;46749;32.932;-117.130;2023-04-01T19:22:55;102113.50;;;14.89;54.67
60897;BME280;46749;32.932;-117.130;2023-04-01T19:25:39;102117.84;;;14.88;54.83
60897;BME280;46749;32.932;-117.130;2023-04-01T19:28:39;102111.72;;;14.88;54.33
60897;BME280;46749;32.932;-117.130;2023-04-01T19:36:58;102097.78;;;14.89;54.95
60897;BME280;46749;32.932;-117.130;2023-04-01T19:39:51;102104.75;;;14.88;54.45
60897;BME280;46749;32.932;-117.130;2023-04-01T19:45:23;102096.03;;;14.88;54.83
60897;BME280;46749;32.932;-117.130;2023-04-01T19:48:21;102099.59;;;14.90;54.59
60897;BME280;46749;32.932;-117.130;2023-04-01T19:53:48;102092.56;;;14.89;54.50
60897;BME280;46749;32.932;-117.130;2023-04-01T19:56:21;102096.03;;;14.88;54.75
60897;BME280;46749;32.932;-117.130;2023-04-01T19:59:02;102088.22;;;14.89;54.54
60897;BME280;46749;32.932;-117.130;2023-04-01T20:04:34;102092.56;;;14.89;54.74
60897;BME280;46749;32.932;-117.130;2023-04-01T20:07:38;102089.94;;;14.89;54.80
60897;BME280;46749;32.932;-117.130;2023-04-01T20:10:17;102079.56;;;14.90;54.79
60897;BME280;46749;32.932;-117.130;2023-04-01T20:13:57;102089.16;;;14.90;54.59
60897;BME280;46749;32.932;-117.130;2023-04-01T20:16:10;102090.94;;;14.91;54.58
60897;BME280;46749;32.932;-117.130;2023-04-01T20:26:43;102076.06;;;14.90;54.63
60897;BME280;46749;32.932;-117.130;2023-04-01T20:38:12;102063.88;;;14.90;54.68
60897;BME280;46749;32.932;-117.130;2023-04-01T20:40:40;102059.53;;;14.91;54.98
60897;BME280;46749;32.932;-117.130;2023-04-01T20:43:48;102063.94;;;14.92;55.23
60897;BME280;46749;32.932;-117.130;2023-04-01T20:46:20;102054.34;;;14.92;55.15
60897;BME280;46749;32.932;-117.130;2023-04-01T20:48:59;102056.97;;;14.92;55.17
60897;BME280;46749;32.932;-117.130;2023-04-01T20:51:43;102042.16;;;14.93;55.30
60897;BME280;46749;32.932;-117.130;2023-04-01T20:57:04;102049.19;;;14.94;55.01